Terminal Aerodrome Forecast
Issued by NWS Sterling, VA

Current Version | Previous Version | Text Only | Print | Product List | Glossary Off
Versions: 1 2 3 4 5 6 7 8 9 10 11 12 13 14 15 16 17 18 19 20 21 22 23 24 25 26

000
FTUS41 KLWX 220533
TAFMRB
TAF
KMRB 220533Z 2206/2306 VRB03KT 1/4SM -DZ FG OVC002
     FM221500 06004KT 1SM -DZ BR OVC003
     FM221800 06005KT 5SM -DZ BKN008 OVC015
     FM222100 06006KT 5SM -RA BKN008 OVC015=

USA.gov is the U.S. government's official web portal to all federal, state and local government web resources and services.